Time;durP1;ratioP1;P1;durP2;ratioP2;P2;SDS_P1;SDS_P2;PMS_P1;PMS_P2;Temp;Humidity;BMP_temperature;BMP_pressure;BME280_temperature;BME280_humidity;BME280_pressure;Samples;Min_cycle;Max_cycle;Signal;HPM_P1;HPM_P2
2022/07/02 00:01:02;;;;;;;2.20;1.95;;;15.60;99.90;;;;;;639952;218;26570;-70
2022/07/02 00:03:32;;;;;;;2.40;2.20;;;15.50;99.90;;;;;;639777;225;26578;-70
2022/07/02 00:06:00;;;;;;;1.90;1.80;;;15.50;99.90;;;;;;639693;224;26486;-70
2022/07/02 00:08:28;;;;;;;2.55;2.00;;;15.50;99.90;;;;;;639653;225;26518;-70
2022/07/02 00:10:56;;;;;;;1.87;1.77;;;15.50;99.90;;;;;;639735;225;26545;-70
2022/07/02 00:13:24;;;;;;;2.75;2.30;;;15.50;99.90;;;;;;639344;225;26585;-70
2022/07/02 00:15:52;;;;;;;2.00;1.90;;;15.40;99.90;;;;;;639424;225;26517;-70
2022/07/02 00:18:19;;;;;;;2.28;2.10;;;15.50;99.90;;;;;;639414;225;26545;-70
2022/07/02 00:20:46;;;;;;;2.17;2.08;;;15.50;99.90;;;;;;639412;224;26555;-70
2022/07/02 00:23:14;;;;;;;2.15;2.05;;;15.50;99.90;;;;;;639241;224;27246;-70
2022/07/02 00:25:41;;;;;;;2.55;2.10;;;15.50;99.90;;;;;;639324;225;26783;-70
2022/07/02 00:28:11;;;;;;;2.25;2.15;;;15.40;99.90;;;;;;639359;225;26505;-70
2022/07/02 00:30:38;;;;;;;2.10;1.90;;;15.40;99.90;;;;;;639115;222;26578;-70
2022/07/02 00:33:06;;;;;;;2.58;1.92;;;15.40;99.90;;;;;;639118;225;26571;-70
2022/07/02 00:35:34;;;;;;;2.50;2.30;;;15.40;99.90;;;;;;638971;224;26553;-70
2022/07/02 00:38:01;;;;;;;1.90;1.80;;;15.40;99.90;;;;;;639076;225;26805;-70
2022/07/02 00:40:29;;;;;;;2.00;1.90;;;15.30;99.90;;;;;;638993;222;26605;-70
2022/07/02 00:42:56;;;;;;;2.20;2.10;;;15.30;99.90;;;;;;638916;219;26770;-70
2022/07/02 00:45:23;;;;;;;2.10;2.00;;;15.30;99.90;;;;;;639022;224;26571;-70
2022/07/02 00:47:50;;;;;;;1.85;1.75;;;15.30;99.90;;;;;;638945;224;26608;-70
2022/07/02 00:50:17;;;;;;;2.08;1.87;;;15.30;99.90;;;;;;639004;223;26590;-70
2022/07/02 00:52:45;;;;;;;2.20;2.00;;;15.30;99.90;;;;;;638968;225;26789;-70
2022/07/02 00:55:12;;;;;;;2.25;2.00;;;15.30;99.90;;;;;;639020;224;26557;-70
2022/07/02 00:57:39;;;;;;;2.10;2.00;;;15.30;99.90;;;;;;639348;225;26770;-70
2022/07/02 01:00:08;;;;;;;2.20;2.00;;;15.20;99.90;;;;;;639387;225;26559;-70
2022/07/02 01:02:35;;;;;;;2.00;1.90;;;15.20;99.90;;;;;;639030;224;26533;-70
2022/07/02 01:05:02;;;;;;;2.10;1.90;;;15.20;99.90;;;;;;639465;223;26813;-70
2022/07/02 01:07:29;;;;;;;2.17;2.00;;;15.30;99.90;;;;;;640530;224;26561;-70
2022/07/02 01:12:30;;;;;;;1.90;1.80;;;15.20;99.90;;;;;;639990;225;26496;-70
2022/07/02 01:14:58;;;;;;;2.17;2.08;;;15.20;99.90;;;;;;639755;224;26566;-70
2022/07/02 01:17:26;;;;;;;2.10;2.00;;;15.20;99.90;;;;;;639667;224;26518;-70
2022/07/02 01:19:54;;;;;;;2.60;2.40;;;15.20;99.90;;;;;;639636;224;26537;-70
2022/07/02 01:22:22;;;;;;;2.12;2.03;;;15.10;99.90;;;;;;639616;225;26534;-70
2022/07/02 01:24:49;;;;;;;2.00;1.90;;;15.20;99.90;;;;;;639320;225;26834;-70
2022/07/02 01:27:16;;;;;;;3.12;2.25;;;15.20;99.90;;;;;;639239;224;26478;-70
2022/07/02 01:29:44;;;;;;;2.28;1.92;;;15.20;99.90;;;;;;639288;223;26786;-70
2022/07/02 01:32:11;;;;;;;2.30;2.10;;;15.20;99.90;;;;;;639306;224;26478;-70
2022/07/02 01:34:39;;;;;;;2.17;2.08;;;15.20;99.90;;;;;;639345;225;26530;-70
2022/07/02 01:37:07;;;;;;;1.92;1.83;;;15.20;99.90;;;;;;639242;225;27076;-70
2022/07/02 01:39:34;;;;;;;1.95;1.85;;;15.20;99.90;;;;;;639161;224;26546;-70
2022/07/02 01:42:01;;;;;;;2.17;2.08;;;15.30;99.90;;;;;;639047;223;26530;-70
2022/07/02 01:44:29;;;;;;;2.42;2.03;;;15.30;99.90;;;;;;639002;224;26539;-70
2022/07/02 01:46:57;;;;;;;2.22;2.12;;;15.30;99.90;;;;;;639077;225;26566;-70
2022/07/02 01:49:25;;;;;;;2.42;2.25;;;15.40;99.90;;;;;;638968;223;26582;-70
2022/07/02 01:51:52;;;;;;;2.42;2.30;;;15.30;99.90;;;;;;639040;225;26607;-70
2022/07/02 01:54:20;;;;;;;2.22;2.12;;;15.30;99.90;;;;;;639128;224;26581;-70
2022/07/02 01:56:47;;;;;;;2.22;2.12;;;15.30;99.90;;;;;;639097;224;26796;-69
2022/07/02 01:59:14;;;;;;;2.10;2.00;;;15.30;99.90;;;;;;638970;222;26624;-70
2022/07/02 02:01:41;;;;;;;2.20;2.10;;;15.30;99.90;;;;;;639007;225;26804;-69
2022/07/02 02:04:08;;;;;;;2.08;1.98;;;15.30;99.90;;;;;;639004;225;26564;-69
2022/07/02 02:06:37;;;;;;;2.30;2.10;;;15.30;99.90;;;;;;638974;224;26793;-69
2022/07/02 02:09:03;;;;;;;2.00;1.90;;;15.30;99.90;;;;;;638965;222;26778;-70
2022/07/02 02:11:31;;;;;;;2.10;2.00;;;15.30;99.90;;;;;;639034;225;26547;-70
2022/07/02 02:13:59;;;;;;;2.47;2.28;;;15.40;99.90;;;;;;639005;224;26784;-70
2022/07/02 02:16:28;;;;;;;2.00;1.90;;;15.50;99.90;;;;;;639365;223;26563;-70
2022/07/02 02:18:56;;;;;;;2.53;2.33;;;15.50;99.90;;;;;;640543;224;26586;-70
2022/07/02 02:21:24;;;;;;;2.40;2.30;;;15.50;99.90;;;;;;640109;225;26515;-70
2022/07/02 02:23:51;;;;;;;2.60;2.40;;;15.60;99.90;;;;;;639902;225;26572;-70
2022/07/02 02:26:18;;;;;;;2.33;2.22;;;15.50;99.90;;;;;;639741;225;26564;-70
2022/07/02 02:28:46;;;;;;;2.22;2.12;;;15.50;99.90;;;;;;639642;223;26514;-70
2022/07/02 02:31:13;;;;;;;2.50;2.37;;;15.50;99.90;;;;;;639667;224;26550;-69
2022/07/02 02:33:41;;;;;;;2.10;2.00;;;15.50;99.90;;;;;;639600;225;26754;-69
2022/07/02 02:36:07;;;;;;;2.20;2.10;;;15.40;99.90;;;;;;639226;224;26506;-69
2022/07/02 02:38:36;;;;;;;2.08;1.98;;;15.30;99.90;;;;;;639327;225;26558;-69
2022/07/02 02:41:05;;;;;;;2.30;2.15;;;15.20;99.90;;;;;;639264;219;26533;-69
2022/07/02 02:43:33;;;;;;;2.58;2.30;;;15.20;99.90;;;;;;639248;224;27068;-69
2022/07/02 02:45:59;;;;;;;2.28;2.17;;;15.20;99.90;;;;;;639688;224;26490;-69
2022/07/02 02:48:26;;;;;;;2.53;2.42;;;15.20;99.90;;;;;;639685;225;26482;-69
2022/07/02 02:50:54;;;;;;;2.37;2.28;;;15.10;99.90;;;;;;639679;222;26789;-69
2022/07/02 02:53:21;;;;;;;2.20;2.10;;;15.10;99.90;;;;;;639382;224;26558;-69
2022/07/02 02:55:48;;;;;;;2.80;2.60;;;15.10;99.90;;;;;;639027;223;27226;-69
2022/07/02 02:58:15;;;;;;;3.00;2.42;;;15.10;99.90;;;;;;638964;225;26558;-69
2022/07/02 03:00:42;;;;;;;2.55;2.42;;;15.10;99.90;;;;;;639018;223;26817;-69
2022/07/02 03:03:10;;;;;;;2.50;2.40;;;15.10;99.90;;;;;;639048;225;26582;-69
2022/07/02 03:05:37;;;;;;;2.62;2.53;;;15.10;99.90;;;;;;638962;224;27167;-69
2022/07/02 03:08:05;;;;;;;2.50;2.40;;;15.10;99.90;;;;;;639031;225;26565;-69
2022/07/02 03:10:32;;;;;;;2.70;2.50;;;15.10;99.90;;;;;;638992;225;26811;-69
2022/07/02 03:12:59;;;;;;;2.92;2.72;;;15.00;99.90;;;;;;638989;224;26550;-69
2022/07/02 03:15:26;;;;;;;2.55;2.40;;;15.00;99.90;;;;;;638968;224;26805;-69
2022/07/02 03:17:53;;;;;;;2.60;2.50;;;15.00;99.90;;;;;;638978;224;26583;-69
2022/07/02 03:20:21;;;;;;;3.33;2.60;;;15.00;99.90;;;;;;638959;222;26594;-69
2022/07/02 03:22:48;;;;;;;2.45;2.35;;;15.10;99.90;;;;;;639010;225;26570;-69
2022/07/02 03:25:16;;;;;;;2.75;2.55;;;15.10;99.90;;;;;;638960;223;26539;-69
2022/07/02 03:27:44;;;;;;;2.72;2.55;;;15.10;99.90;;;;;;639055;223;26557;-69
2022/07/02 03:30:13;;;;;;;2.47;2.37;;;15.10;99.90;;;;;;640718;223;26581;-69
2022/07/02 03:32:41;;;;;;;2.40;2.30;;;15.10;99.90;;;;;;640162;223;26590;-69
2022/07/02 03:35:09;;;;;;;2.83;2.70;;;15.10;99.90;;;;;;639920;223;26523;-69
2022/07/02 03:37:36;;;;;;;2.55;2.45;;;15.10;99.90;;;;;;639751;225;26604;-69
2022/07/02 03:40:05;;;;;;;2.40;2.30;;;15.10;99.90;;;;;;639612;223;26545;-69
2022/07/02 03:42:32;;;;;;;2.80;2.60;;;15.20;99.90;;;;;;639621;225;26758;-69
2022/07/02 03:45:00;;;;;;;2.42;2.33;;;15.30;99.90;;;;;;639642;224;26504;-68
2022/07/02 03:47:28;;;;;;;2.58;2.37;;;15.30;99.90;;;;;;639360;224;26526;-69
2022/07/02 03:49:56;;;;;;;2.70;2.50;;;15.40;99.90;;;;;;639195;222;26542;-68
2022/07/02 03:52:24;;;;;;;2.65;2.33;;;15.30;99.90;;;;;;639196;225;26534;-69
2022/07/02 03:54:52;;;;;;;3.80;2.75;;;15.40;99.90;;;;;;639152;225;26515;-68
2022/07/02 03:57:19;;;;;;;2.70;2.50;;;15.40;99.90;;;;;;639110;224;26505;-68
2022/07/02 03:59:46;;;;;;;2.80;2.70;;;15.50;99.90;;;;;;639190;222;26542;-69
2022/07/02 04:02:13;;;;;;;2.70;2.60;;;15.50;99.90;;;;;;639188;223;26846;-69
2022/07/02 04:04:40;;;;;;;2.65;2.55;;;15.50;99.90;;;;;;639113;224;26559;-69
2022/07/02 04:07:08;;;;;;;2.72;2.62;;;15.60;99.90;;;;;;638972;224;26773;-68
2022/07/02 04:09:36;;;;;;;2.67;2.58;;;15.60;99.90;;;;;;638928;225;26800;-68
2022/07/02 04:12:04;;;;;;;2.70;2.60;;;15.70;99.90;;;;;;638984;225;26841;-69
2022/07/02 04:14:31;;;;;;;2.60;2.50;;;15.70;99.90;;;;;;639000;224;26793;-67
2022/07/02 04:16:58;;;;;;;2.72;2.55;;;15.80;99.80;;;;;;638962;224;26566;-69
2022/07/02 04:19:25;;;;;;;2.80;2.60;;;15.90;99.50;;;;;;638995;222;26809;-69
2022/07/02 04:21:52;;;;;;;2.25;2.15;;;15.90;99.30;;;;;;638980;224;26553;-69
2022/07/02 04:24:20;;;;;;;2.83;2.62;;;16.00;99.20;;;;;;639005;224;26770;-69
2022/07/02 04:26:47;;;;;;;2.70;2.60;;;16.00;99.10;;;;;;639025;225;26536;-69
2022/07/02 04:29:14;;;;;;;3.03;2.83;;;16.10;98.70;;;;;;639021;222;27173;-69
2022/07/02 04:31:42;;;;;;;2.90;2.70;;;16.20;98.40;;;;;;639013;224;26546;-69
2022/07/02 04:34:10;;;;;;;2.70;2.60;;;16.20;98.10;;;;;;638991;219;26545;-69
2022/07/02 04:36:39;;;;;;;2.85;2.72;;;16.30;98.00;;;;;;638962;223;26567;-69
2022/07/02 04:39:06;;;;;;;2.58;2.42;;;16.30;97.90;;;;;;638941;223;26563;-69
2022/07/02 04:41:33;;;;;;;3.17;2.97;;;16.30;97.80;;;;;;640805;223;26570;-69
2022/07/02 04:44:00;;;;;;;2.70;2.60;;;16.40;97.90;;;;;;640236;223;26587;-69
2022/07/02 04:46:28;;;;;;;3.35;2.45;;;16.40;97.60;;;;;;639926;223;26534;-69
2022/07/02 04:48:55;;;;;;;2.30;2.20;;;16.50;97.30;;;;;;639803;224;26554;-69
2022/07/02 04:51:22;;;;;;;2.70;2.50;;;16.50;97.10;;;;;;639659;224;26512;-69
2022/07/02 04:53:50;;;;;;;2.65;2.55;;;16.60;96.80;;;;;;639648;225;26761;-69
2022/07/02 04:56:17;;;;;;;2.70;2.58;;;16.70;97.00;;;;;;639684;224;26514;-69
2022/07/02 04:58:44;;;;;;;2.70;2.50;;;16.80;96.80;;;;;;639387;224;26861;-69
2022/07/02 05:01:11;;;;;;;2.53;2.42;;;16.90;96.60;;;;;;639314;223;26549;-69
2022/07/02 05:03:38;;;;;;;3.10;2.90;;;16.90;96.00;;;;;;639294;224;27176;-69
2022/07/02 05:06:06;;;;;;;2.58;2.37;;;17.00;96.00;;;;;;639307;224;26510;-69
2022/07/02 05:08:33;;;;;;;2.95;2.80;;;17.00;95.50;;;;;;639322;224;27165;-68
2022/07/02 05:11:00;;;;;;;2.83;2.70;;;17.10;95.40;;;;;;639355;224;26545;-68
2022/07/02 05:13:27;;;;;;;2.62;2.50;;;17.20;94.80;;;;;;639295;224;27154;-68
2022/07/02 05:15:54;;;;;;;2.80;2.60;;;17.30;94.80;;;;;;639188;224;26562;-68
2022/07/02 05:18:22;;;;;;;2.50;2.30;;;17.40;94.50;;;;;;638991;224;26569;-69
2022/07/02 05:20:50;;;;;;;3.42;2.58;;;17.40;94.10;;;;;;638942;224;26614;-68
2022/07/02 05:23:18;;;;;;;2.90;2.70;;;17.50;93.90;;;;;;639037;225;26593;-69
2022/07/02 05:25:46;;;;;;;2.03;2.00;;;17.70;93.60;;;;;;638955;219;26558;-69
2022/07/02 05:28:13;;;;;;;2.75;2.53;;;17.60;93.50;;;;;;638946;225;26534;-69
2022/07/02 05:30:40;;;;;;;2.83;2.62;;;17.70;93.20;;;;;;638964;222;26574;-69
2022/07/02 05:33:07;;;;;;;3.00;2.75;;;17.70;92.90;;;;;;638969;224;26798;-69
2022/07/02 05:35:35;;;;;;;3.62;2.50;;;17.80;92.60;;;;;;638922;224;26535;-69
2022/07/02 05:38:03;;;;;;;2.97;2.80;;;18.00;92.70;;;;;;638959;225;26568;-69
2022/07/02 05:40:30;;;;;;;2.40;2.30;;;18.00;92.70;;;;;;638855;224;26620;-69
2022/07/02 05:42:57;;;;;;;3.15;2.85;;;18.10;91.90;;;;;;639011;224;26548;-68
2022/07/02 05:45:24;;;;;;;2.50;2.40;;;18.10;91.80;;;;;;638959;224;26789;-68
2022/07/02 05:47:52;;;;;;;2.40;2.30;;;18.30;91.30;;;;;;638946;223;26533;-68
2022/07/02 05:50:20;;;;;;;2.87;2.67;;;18.60;90.70;;;;;;638885;225;26792;-68
2022/07/02 05:52:47;;;;;;;2.20;2.10;;;18.50;90.70;;;;;;640505;223;26872;-68
2022/07/02 05:55:14;;;;;;;2.83;2.72;;;18.80;90.30;;;;;;640295;224;26566;-68
2022/07/02 05:57:42;;;;;;;2.60;2.47;;;18.70;89.70;;;;;;639925;225;26576;-68
2022/07/02 06:00:11;;;;;;;2.70;2.50;;;18.90;89.00;;;;;;639839;223;26591;-68
2022/07/02 06:02:38;;;;;;;2.83;2.62;;;18.90;89.00;;;;;;639654;218;26582;-68
2022/07/02 06:07:48;;;;;;;3.30;2.50;;;19.00;86.50;;;;;;641013;223;26574;-69
2022/07/02 06:10:18;;;;;;;2.85;2.65;;;19.20;87.60;;;;;;639386;225;26542;-69
2022/07/02 06:12:43;;;;;;;2.60;2.50;;;19.40;85.90;;;;;;639197;219;26511;-69
2022/07/02 06:15:11;;;;;;;2.58;2.35;;;19.50;84.80;;;;;;639285;224;26533;-69
2022/07/02 06:17:39;;;;;;;3.00;2.70;;;19.60;83.80;;;;;;639293;218;26518;-69
2022/07/02 06:20:08;;;;;;;2.72;2.53;;;19.60;83.80;;;;;;639243;218;26751;-69
2022/07/02 06:22:35;;;;;;;2.30;2.20;;;19.60;82.90;;;;;;639333;224;26534;-69
2022/07/02 06:25:02;;;;;;;2.95;2.75;;;19.70;83.70;;;;;;639402;224;26752;-69
2022/07/02 06:27:33;;;;;;;3.05;2.53;;;19.80;82.20;;;;;;639207;225;26535;-69
2022/07/02 06:29:57;;;;;;;3.05;2.80;;;19.90;81.50;;;;;;638900;224;26594;-69
2022/07/02 06:32:25;;;;;;;2.70;2.50;;;20.00;80.50;;;;;;639059;224;26561;-69
2022/07/02 06:34:53;;;;;;;2.28;2.17;;;20.10;81.00;;;;;;639034;225;26561;-68
2022/07/02 06:37:21;;;;;;;2.90;2.70;;;20.10;81.00;;;;;;639061;225;26556;-69
2022/07/02 06:39:49;;;;;;;3.17;2.97;;;20.40;79.30;;;;;;639017;223;26592;-69
2022/07/02 06:42:19;;;;;;;2.70;2.53;;;20.30;78.90;;;;;;638956;224;26807;-69
2022/07/02 06:44:46;;;;;;;2.58;2.47;;;20.40;78.60;;;;;;638949;225;26788;-69
2022/07/02 06:47:14;;;;;;;2.50;2.30;;;20.50;77.50;;;;;;638837;225;26569;-68
2022/07/02 06:49:42;;;;;;;2.60;2.40;;;20.50;77.20;;;;;;639049;225;26595;-69
2022/07/02 06:52:09;;;;;;;2.45;2.25;;;20.50;76.00;;;;;;639083;225;26562;-69
2022/07/02 06:54:36;;;;;;;2.37;2.28;;;20.60;76.70;;;;;;638985;225;26572;-69
2022/07/02 06:57:04;;;;;;;2.67;2.47;;;20.80;75.50;;;;;;639000;225;26783;-69
2022/07/02 06:59:31;;;;;;;2.30;2.20;;;20.90;75.60;;;;;;638925;223;26933;-69
2022/07/02 07:01:58;;;;;;;2.70;2.50;;;20.90;75.20;;;;;;638985;225;26784;-69
2022/07/02 07:04:28;;;;;;;3.33;2.95;;;21.00;73.50;;;;;;640633;223;26813;-69
2022/07/02 07:06:55;;;;;;;2.60;2.40;;;21.20;72.30;;;;;;640273;223;26517;-69
2022/07/02 07:09:22;;;;;;;2.33;2.22;;;21.30;71.20;;;;;;639929;225;26880;-69
2022/07/02 07:11:49;;;;;;;2.15;2.05;;;21.20;71.60;;;;;;639863;225;26584;-69
2022/07/02 07:14:16;;;;;;;2.58;2.37;;;21.60;71.70;;;;;;639580;225;26824;-69
2022/07/02 07:16:44;;;;;;;2.15;2.03;;;21.80;71.10;;;;;;639494;224;26517;-69
2022/07/02 07:19:11;;;;;;;2.60;2.40;;;21.80;67.50;;;;;;639557;225;26752;-69
2022/07/02 07:21:38;;;;;;;2.60;2.40;;;21.90;66.70;;;;;;639474;225;26505;-69
2022/07/02 07:24:06;;;;;;;2.60;2.50;;;21.90;65.50;;;;;;639227;224;26822;-67
2022/07/02 07:26:33;;;;;;;2.60;2.40;;;21.80;63.90;;;;;;639807;221;26563;-69
2022/07/02 07:29:01;;;;;;;2.33;2.17;;;22.00;64.00;;;;;;642651;221;26498;-69
2022/07/02 07:31:29;;;;;;;2.92;2.70;;;22.20;62.20;;;;;;638959;225;26581;-69
2022/07/02 07:33:57;;;;;;;2.00;1.90;;;22.00;60.60;;;;;;638883;221;26568;-68
2022/07/02 07:36:24;;;;;;;2.50;2.30;;;22.00;60.60;;;;;;643315;221;26757;-69
2022/07/02 07:38:51;;;;;;;2.62;2.42;;;22.10;60.40;;;;;;644249;221;26560;-69
2022/07/02 07:41:18;;;;;;;2.42;2.22;;;22.10;60.20;;;;;;638843;223;26858;-69
2022/07/02 07:43:46;;;;;;;2.12;2.03;;;22.00;61.30;;;;;;639261;221;26585;-69
2022/07/02 07:46:13;;;;;;;2.10;1.90;;;22.10;59.50;;;;;;646878;221;26529;-69
2022/07/02 07:48:42;;;;;;;3.97;2.00;;;22.20;59.40;;;;;;643695;221;26513;-70
2022/07/02 07:51:09;;;;;;;2.45;2.25;;;22.30;59.00;;;;;;642416;221;26530;-70
2022/07/02 07:53:37;;;;;;;2.95;2.72;;;22.50;58.70;;;;;;638763;223;26575;-69
2022/07/02 07:56:05;;;;;;;1.83;1.73;;;22.40;58.70;;;;;;638559;224;26546;-69
2022/07/02 07:58:34;;;;;;;3.62;2.60;;;22.30;56.00;;;;;;638601;221;26580;-69
2022/07/02 08:01:01;;;;;;;2.85;1.83;;;22.30;56.00;;;;;;638731;223;26594;-69
2022/07/02 08:03:28;;;;;;;2.15;2.03;;;22.40;56.60;;;;;;638139;224;26815;-69
2022/07/02 08:05:56;;;;;;;2.87;1.60;;;22.90;55.00;;;;;;638837;223;26559;-69
2022/07/02 08:08:24;;;;;;;1.90;1.80;;;23.00;55.00;;;;;;642870;221;26494;-69
2022/07/02 08:10:52;;;;;;;2.42;1.90;;;22.90;55.60;;;;;;644636;221;26563;-69
2022/07/02 08:13:19;;;;;;;2.22;2.03;;;22.80;55.50;;;;;;639035;221;26520;-69
2022/07/02 08:15:46;;;;;;;4.87;2.00;;;23.00;53.50;;;;;;648606;219;26583;-69
2022/07/02 08:18:13;;;;;;;3.12;2.35;;;23.10;53.00;;;;;;642938;220;26513;-69
2022/07/02 08:20:40;;;;;;;1.80;1.67;;;23.10;52.50;;;;;;645780;220;26528;-69
2022/07/02 08:23:08;;;;;;;2.70;1.83;;;23.30;51.70;;;;;;639563;224;26808;-69
2022/07/02 08:25:35;;;;;;;2.62;1.98;;;23.30;51.70;;;;;;639877;222;26497;-70
2022/07/02 08:28:03;;;;;;;2.03;1.90;;;23.20;51.70;;;;;;644809;222;27160;-70
2022/07/02 08:30:29;;;;;;;2.03;1.90;;;23.20;51.00;;;;;;641472;222;26513;-70
2022/07/02 08:32:57;;;;;;;2.03;1.85;;;23.40;51.30;;;;;;641954;222;26754;-69
2022/07/02 08:35:24;;;;;;;1.87;1.77;;;23.20;50.40;;;;;;637568;224;26577;-69
2022/07/02 08:37:51;;;;;;;2.03;1.90;;;23.20;51.00;;;;;;648794;221;26767;-69
2022/07/02 08:40:18;;;;;;;3.65;2.12;;;23.60;49.90;;;;;;638163;223;26543;-69
2022/07/02 08:42:45;;;;;;;1.33;1.30;;;24.00;50.00;;;;;;638696;224;26809;-70
2022/07/02 08:45:13;;;;;;;3.55;2.15;;;23.90;49.60;;;;;;638884;221;26563;-69
2022/07/02 08:47:40;;;;;;;2.97;2.03;;;23.50;49.70;;;;;;648872;221;27007;-70
2022/07/02 08:50:08;;;;;;;3.90;1.95;;;23.40;47.90;;;;;;641205;221;26526;-70
2022/07/02 08:52:36;;;;;;;2.20;2.00;;;23.40;48.50;;;;;;645099;221;26537;-70
2022/07/02 08:55:05;;;;;;;3.37;1.80;;;23.40;48.40;;;;;;646300;221;26486;-70
2022/07/02 08:57:32;;;;;;;1.77;1.67;;;23.40;48.80;;;;;;640062;221;26537;-70
2022/07/02 09:00:00;;;;;;;3.05;2.08;;;23.20;48.40;;;;;;648818;221;26514;-70
2022/07/02 09:02:28;;;;;;;2.15;1.60;;;23.20;49.10;;;;;;640312;221;27208;-70
2022/07/02 09:04:55;;;;;;;2.25;2.08;;;23.10;49.00;;;;;;637921;224;27179;-70
2022/07/02 09:07:22;;;;;;;2.60;1.70;;;23.10;49.70;;;;;;637225;225;26509;-70
2022/07/02 09:09:49;;;;;;;2.08;1.73;;;23.10;49.20;;;;;;648464;221;27065;-70
2022/07/02 09:12:16;;;;;;;2.00;1.80;;;23.10;49.50;;;;;;637788;224;26515;-70
2022/07/02 09:14:44;;;;;;;1.62;1.52;;;23.00;48.90;;;;;;644649;221;26514;-70
2022/07/02 09:17:12;;;;;;;1.58;1.48;;;22.40;47.90;;;;;;641532;221;26570;-70
2022/07/02 09:19:40;;;;;;;2.20;1.40;;;22.30;47.70;;;;;;649176;221;26594;-70
2022/07/02 09:22:07;;;;;;;1.80;1.70;;;22.50;48.00;;;;;;647775;221;26526;-70
2022/07/02 09:24:37;;;;;;;1.55;1.45;;;22.60;48.10;;;;;;638756;224;26529;-70
2022/07/02 09:27:05;;;;;;;1.17;1.17;;;22.60;48.10;;;;;;648409;218;26526;-68
2022/07/02 09:29:40;;;;;;;3.08;1.35;;;22.70;49.00;;;;;;651881;220;26821;-67
2022/07/02 09:32:08;;;;;;;4.75;1.80;;;22.60;48.70;;;;;;640557;221;26557;-66
2022/07/02 09:34:35;;;;;;;2.20;1.95;;;22.50;48.60;;;;;;639521;221;26552;-67
2022/07/02 09:37:02;;;;;;;2.90;1.80;;;22.50;48.00;;;;;;645164;222;26622;-67
2022/07/02 09:39:29;;;;;;;76.90;15.45;;;22.60;47.80;;;;;;637752;223;26609;-69
2022/07/02 09:41:57;;;;;;;128.68;28.73;;;22.60;48.30;;;;;;642782;222;26546;-69
2022/07/02 09:44:26;;;;;;;162.12;33.40;;;22.60;48.30;;;;;;649561;221;26512;-68
2022/07/02 09:46:52;;;;;;;124.95;28.62;;;22.70;47.40;;;;;;640757;221;26578;-70
2022/07/02 09:49:20;;;;;;;124.78;27.62;;;22.80;46.80;;;;;;648326;221;26554;-67
2022/07/02 09:51:49;;;;;;;89.47;22.05;;;22.80;46.70;;;;;;639136;224;26574;-67
2022/07/02 09:54:20;;;;;;;84.05;21.12;;;22.90;46.00;;;;;;638953;225;26510;-67
2022/07/02 09:56:52;;;;;;;79.32;18.42;;;23.00;45.90;;;;;;638940;224;26518;-67
2022/07/02 09:59:19;;;;;;;25.62;8.15;;;23.10;44.80;;;;;;638941;224;26626;-67
2022/07/02 10:01:46;;;;;;;1.73;1.62;;;23.30;45.60;;;;;;639121;224;26788;-66
2022/07/02 10:04:13;;;;;;;55.15;14.48;;;23.40;45.60;;;;;;639105;224;26598;-67
2022/07/02 10:06:44;;;;;;;50.15;12.02;;;23.60;45.90;;;;;;638916;224;26796;-67
2022/07/02 10:09:11;;;;;;;25.30;7.30;;;23.50;45.20;;;;;;638850;223;26574;-67
2022/07/02 10:11:39;;;;;;;8.48;4.20;;;23.50;44.90;;;;;;638868;224;26576;-68
2022/07/02 10:14:07;;;;;;;18.02;6.87;;;23.60;43.70;;;;;;639248;224;26552;-68
2022/07/02 10:16:34;;;;;;;3.67;1.83;;;23.60;43.70;;;;;;639199;224;26780;-68
2022/07/02 10:19:03;;;;;;;11.30;4.30;;;23.70;44.20;;;;;;639268;224;26540;-68
2022/07/02 10:21:30;;;;;;;9.20;3.35;;;23.80;44.70;;;;;;639284;224;26542;-68
2022/07/02 10:23:58;;;;;;;9.70;3.50;;;23.50;44.70;;;;;;639304;224;26540;-68
2022/07/02 10:26:25;;;;;;;4.87;3.08;;;23.50;44.70;;;;;;639354;224;26551;-68
2022/07/02 10:28:52;;;;;;;3.58;2.33;;;23.60;45.50;;;;;;639295;224;26521;-68
2022/07/02 10:31:19;;;;;;;5.15;2.40;;;23.70;44.40;;;;;;639361;224;27001;-69
2022/07/02 10:34:01;;;;;;;4.50;2.15;;;23.80;44.40;;;;;;639063;224;26566;-69
2022/07/02 10:36:28;;;;;;;1.92;1.40;;;23.90;43.90;;;;;;639010;221;26563;-65
2022/07/02 10:38:57;;;;;;;2.72;1.12;;;24.60;43.40;;;;;;638802;223;27210;-66
2022/07/02 10:41:26;;;;;;;1.30;1.20;;;24.80;42.80;;;;;;638673;224;26782;-66
2022/07/02 10:43:54;;;;;;;6.93;2.30;;;24.80;42.90;;;;;;638258;224;26537;-65
2022/07/02 10:46:22;;;;;;;1.55;1.37;;;25.10;42.20;;;;;;638205;224;26776;-64
2022/07/02 10:48:49;;;;;;;5.22;2.53;;;25.00;42.20;;;;;;637859;224;26771;-64
2022/07/02 10:51:19;;;;;;;5.47;2.42;;;25.20;41.50;;;;;;638196;224;26529;-64
2022/07/02 10:53:50;;;;;;;6.00;2.58;;;25.00;41.50;;;;;;637952;224;26770;-65
2022/07/02 10:56:17;;;;;;;3.12;2.40;;;24.60;41.80;;;;;;637953;224;26528;-66
2022/07/02 10:58:46;;;;;;;4.43;1.60;;;25.00;41.30;;;;;;637506;224;26587;-66
2022/07/02 11:01:14;;;;;;;5.10;1.70;;;25.00;40.30;;;;;;637605;224;26600;-66
2022/07/02 11:03:54;;;;;;;2.75;1.50;;;25.10;40.80;;;;;;637944;224;26555;-65
2022/07/02 11:06:22;;;;;;;3.47;1.80;;;25.10;40.80;;;;;;637945;224;26729;-66
2022/07/02 11:08:51;;;;;;;1.75;1.33;;;25.20;40.10;;;;;;637636;225;26587;-66
2022/07/02 11:11:18;;;;;;;1.37;1.17;;;25.00;41.00;;;;;;637786;224;26557;-65
2022/07/02 11:13:47;;;;;;;5.28;1.65;;;25.40;41.60;;;;;;637607;224;26559;-65
2022/07/02 11:16:17;;;;;;;1.58;1.08;;;25.60;39.60;;;;;;637184;225;26787;-65
2022/07/02 11:18:45;;;;;;;1.12;1.02;;;25.70;40.40;;;;;;637603;225;26544;-65
2022/07/02 11:21:13;;;;;;;2.47;1.33;;;26.00;39.70;;;;;;637707;225;26578;-65
2022/07/02 11:23:41;;;;;;;1.12;1.02;;;26.00;39.70;;;;;;637849;224;26546;-65
2022/07/02 11:26:08;;;;;;;1.95;1.30;;;25.90;39.60;;;;;;637804;224;26526;-65
2022/07/02 11:28:36;;;;;;;3.70;1.70;;;26.00;40.10;;;;;;637811;226;26522;-66
2022/07/02 11:31:04;;;;;;;1.20;1.10;;;25.80;39.30;;;;;;637842;224;26581;-66
2022/07/02 11:33:30;;;;;;;0.77;0.77;;;25.80;39.50;;;;;;637756;225;26571;-66
2022/07/02 11:35:57;;;;;;;1.17;1.02;;;25.80;39.50;;;;;;637803;225;26489;-66
2022/07/02 11:38:25;;;;;;;1.17;1.10;;;25.80;39.30;;;;;;637776;224;26488;-66
2022/07/02 11:40:52;;;;;;;4.10;1.52;;;25.80;38.90;;;;;;637443;224;26616;-66
2022/07/02 11:43:20;;;;;;;2.42;1.30;;;25.80;39.70;;;;;;637355;224;26594;-66
2022/07/02 11:45:48;;;;;;;0.88;0.88;;;25.70;38.90;;;;;;637411;226;26573;-66
2022/07/02 11:48:18;;;;;;;2.62;1.12;;;25.50;38.70;;;;;;637453;224;26533;-66
2022/07/02 11:50:46;;;;;;;0.80;0.80;;;25.80;39.20;;;;;;639039;223;26585;-66
2022/07/02 11:53:14;;;;;;;4.03;1.35;;;26.00;38.80;;;;;;637532;224;26511;-66
2022/07/02 11:55:41;;;;;;;2.08;1.55;;;26.10;38.50;;;;;;638466;224;26537;-66
2022/07/02 11:58:09;;;;;;;1.25;1.00;;;26.10;38.50;;;;;;638311;224;26584;-66
2022/07/02 12:00:36;;;;;;;1.35;1.00;;;26.30;39.50;;;;;;638057;224;26757;-66
2022/07/02 12:03:09;;;;;;;1.37;1.27;;;26.20;40.40;;;;;;638099;224;26740;-66
2022/07/02 12:05:36;;;;;;;1.00;1.00;;;25.90;38.10;;;;;;638037;224;26503;-66
2022/07/02 12:08:04;;;;;;;1.95;1.30;;;25.90;38.90;;;;;;637793;223;26805;-66
2022/07/02 12:10:38;;;;;;;1.30;1.20;;;25.80;38.90;;;;;;637770;224;26526;-66
2022/07/02 12:13:09;;;;;;;2.62;1.30;;;26.00;38.70;;;;;;637756;224;26582;-66
2022/07/02 12:15:45;;;;;;;1.10;1.05;;;26.00;38.70;;;;;;637676;224;26803;-66
2022/07/02 12:18:14;;;;;;;1.65;0.90;;;26.30;38.40;;;;;;637142;224;26522;-66
2022/07/02 12:20:42;;;;;;;1.05;0.98;;;26.30;38.40;;;;;;638097;223;26851;-66
2022/07/02 12:23:09;;;;;;;1.62;1.02;;;26.70;41.00;;;;;;638159;225;26521;-66
2022/07/02 12:25:44;;;;;;;2.03;1.08;;;26.80;37.40;;;;;;638013;223;26751;-66
2022/07/02 12:30:44;;;;;;;2.55;1.40;;;27.20;36.90;;;;;;637423;224;26599;-66
2022/07/02 12:33:11;;;;;;;1.05;1.00;;;27.50;36.80;;;;;;636231;225;26793;-66
2022/07/02 12:35:39;;;;;;;0.80;0.80;;;27.50;36.10;;;;;;637437;224;26563;-66
2022/07/02 12:38:07;;;;;;;2.03;1.27;;;27.80;36.00;;;;;;637402;224;26762;-66
2022/07/02 12:40:34;;;;;;;0.85;0.85;;;28.30;36.70;;;;;;637405;225;26584;-66
2022/07/02 12:43:02;;;;;;;1.65;0.82;;;28.70;38.60;;;;;;637581;224;26578;-65
2022/07/02 12:45:35;;;;;;;2.08;1.10;;;29.00;35.20;;;;;;637346;225;26581;-66
2022/07/02 12:48:06;;;;;;;1.73;1.10;;;29.40;36.00;;;;;;637352;226;26579;-66
2022/07/02 12:50:34;;;;;;;0.95;0.95;;;30.00;36.10;;;;;;637432;225;27210;-66
2022/07/02 12:53:01;;;;;;;2.35;1.10;;;29.90;36.00;;;;;;637365;224;26800;-66
2022/07/02 12:55:29;;;;;;;1.08;1.08;;;30.40;33.50;;;;;;637401;225;26554;-66